Главная страница
METAR-TAF:

METAR-TAF

Аэропорты :

Hazleton, Пенсильвания, США

широта: 40-59-12N, долгота: 075-59-42W, высота над уровнем моря: 489 м

Текущие метеонаблюдения

Эта сводка был подготовлена 19 часа и 57 минут назад, в 14:55 UTC
Ветер 12 Узел от западный с порывами до 22 Узел, изменяющийся между западный-юго-западный и западно-северо-западный
Температура -2°C
Влажность 69%
Давление 1001 hPa
Видимость: 16.1 км
Сплошная облачность на высоте 2600 фута

METAR: KHZL 271455Z AUTO 28012G22KT 240V300 10SM OVC026 M02/M07 A2956 RMK AO2

Время: 05:52 (10:52 UTC)


TAF: отсутствует

Метеонаблюдения и прогнозы для более 4000 аэропортов (сводки METAR и TAF).

Имеющиеся станции представлены на карте желтыми и красными точками.

Чтобы увидеть название станции, наведите на нее мышь.

Затем щелкните, чтобы увидеть метеонаблюдения и метеопрогнозы.

Управление картой: чтобы увеличить масштаб, щелкните зеленые кнопки с черным крестиком; чтобы уменьшить масштаб, щелкните зеленую кнопку с тире; для просмотра соседних карт щелкайте зеленые стрелки.


METAR-TAF: